Terminal Aerodrome Forecast
Issued by NWS

Home | Current Version | Previous Version | Text Only | Print | Product List | Glossary On
Versions: 1 2 3 4 5 6 7 8 9 10 11 12 13 14 15 16 17 18 19 20 21 22 23
447
FTUS41 KCAR 190007 AAA
TAFHUL
TAF AMD
KHUL 190007Z 1900/1924 VRB03KT P6SM OVC080
     FM190600 13008KT 2SM -FZRASNPL BR OVC025
     FM190800 13010KT 3SM -RA BR OVC015
     FM191000 15012G22KT 3SM -RA BR OVC008
     FM191600 13010G20KT 3SM RA BR OVC005 WS020/18035KT
     FM192100 17013G25KT 6SM -SHRA OVC015=

USA.gov is the U.S. government's official web portal to all federal, state and local government web resources and services.